Pagrindinis puslapis
METAR-TAF:

METAR-TAF

Oro uostai :

Oro pajėgų bazė

Niederstetten, Vokietija

platuma: 49-24N, ilguma: 009-58E, Aukštis: 468 m

Dabartinis oras

Ataskaita buvo paskelbta 31 minutes, ne 20:20 UTC
Vėjas 10 kt iš Pietų
Temperatūra 6°C
Drėgmė 87%
Slėgis 1011 hPa
Matomumas 10 km arba daugiau
Mažai debesys ne aukštis 16000 ft
Išsisklaidę debesys ne aukštis 27000 ft

METAR: ETHN 272020Z 18010KT 9999 FEW160 SCT270 06/04 Q1011 BLU+BLU+ TEMPO BLU

Laikas: 21:51 (20:51 UTC)

Prognozė

Ataskaita buvo paskelbta 51 minutes, ne 20:00 UTC
Prognozė galioja nuo 27 metu 21 UTC su 28 metu 06 UTC
Vėjas 10 kt iš Pietų
Matomumas 10 km arba daugiau
Su prošvaistėmis ne aukštis 5000 ft
Su prošvaistėmis ne aukštis 22000 ft

TAF: ETHN 272000Z 2721/2806 18010KT 9999 NSW BKN050 BKN220

Orai ataskaitas ir orų prognozės (METAR, TAF).

turimą stotys yra geltonos ir raudonos taškus žemėlapyje.

Perkelti pele per norėdami pamatyti stoties vardą.

Tada spustelėkite, norėdami matyti oro stebėjimo ir prognozės.

Norėdami pakeisti žemėlapį: spustelėkite ant žalios mygtukų su juodo kryžiaus žemyn,; žalią mygtuką su brūkšneliu, jei norite nutolinti; arba žalių rodyklių gretimoms žemėlapius.


METAR-TAF: